sensor_id;sensor_type;location;lat;lon;timestamp;pressure;altitude;pressure_sealevel;temperature
20289;BMP180;10303;51.960;8.372;2023-11-22T00:01:06;101508.00;;;8.30
20289;BMP180;10303;51.960;8.372;2023-11-22T00:03:32;101506.00;;;8.30
20289;BMP180;10303;51.960;8.372;2023-11-22T00:05:58;101503.00;;;8.20
20289;BMP180;10303;51.960;8.372;2023-11-22T00:08:24;101518.00;;;8.20
20289;BMP180;10303;51.960;8.372;2023-11-22T00:10:50;101515.00;;;8.20
20289;BMP180;10303;51.960;8.372;2023-11-22T00:13:16;101531.00;;;8.10
20289;BMP180;10303;51.960;8.372;2023-11-22T00:15:42;101526.00;;;8.10
20289;BMP180;10303;51.960;8.372;2023-11-22T00:18:08;101528.00;;;8.00
20289;BMP180;10303;51.960;8.372;2023-11-22T00:20:34;101533.00;;;8.00
20289;BMP180;10303;51.960;8.372;2023-11-22T00:23:00;101531.00;;;7.90
20289;BMP180;10303;51.960;8.372;2023-11-22T00:25:26;101533.00;;;7.90
20289;BMP180;10303;51.960;8.372;2023-11-22T00:27:52;101529.00;;;7.80
20289;BMP180;10303;51.960;8.372;2023-11-22T00:30:18;101534.00;;;7.80
20289;BMP180;10303;51.960;8.372;2023-11-22T00:32:44;101529.00;;;7.80
20289;BMP180;10303;51.960;8.372;2023-11-22T00:35:10;101523.00;;;7.70
20289;BMP180;10303;51.960;8.372;2023-11-22T00:37:36;101542.00;;;7.70
20289;BMP180;10303;51.960;8.372;2023-11-22T00:40:03;101533.00;;;7.70
20289;BMP180;10303;51.960;8.372;2023-11-22T00:42:40;101559.00;;;7.60
20289;BMP180;10303;51.960;8.372;2023-11-22T00:45:09;101559.00;;;7.60
20289;BMP180;10303;51.960;8.372;2023-11-22T00:47:37;101567.00;;;7.50
20289;BMP180;10303;51.960;8.372;2023-11-22T00:50:03;101565.00;;;7.50
20289;BMP180;10303;51.960;8.372;2023-11-22T00:52:31;101566.00;;;7.50
20289;BMP180;10303;51.960;8.372;2023-11-22T00:54:57;101574.00;;;7.40
20289;BMP180;10303;51.960;8.372;2023-11-22T00:57:23;101577.00;;;7.40
20289;BMP180;10303;51.960;8.372;2023-11-22T00:59:49;101581.00;;;7.30
20289;BMP180;10303;51.960;8.372;2023-11-22T01:02:18;101586.00;;;7.30
20289;BMP180;10303;51.960;8.372;2023-11-22T01:04:44;101580.00;;;7.30
20289;BMP180;10303;51.960;8.372;2023-11-22T01:07:10;101582.00;;;7.20
20289;BMP180;10303;51.960;8.372;2023-11-22T01:09:36;101595.00;;;7.20
20289;BMP180;10303;51.960;8.372;2023-11-22T01:12:02;101582.00;;;7.20
20289;BMP180;10303;51.960;8.372;2023-11-22T01:14:28;101592.00;;;7.10
20289;BMP180;10303;51.960;8.372;2023-11-22T01:16:55;101585.00;;;7.10
20289;BMP180;10303;51.960;8.372;2023-11-22T01:19:21;101587.00;;;7.10
20289;BMP180;10303;51.960;8.372;2023-11-22T01:21:47;101587.00;;;7.00
20289;BMP180;10303;51.960;8.372;2023-11-22T01:24:13;101581.00;;;7.00
20289;BMP180;10303;51.960;8.372;2023-11-22T01:26:39;101577.00;;;6.90
20289;BMP180;10303;51.960;8.372;2023-11-22T01:29:06;101573.00;;;6.90
20289;BMP180;10303;51.960;8.372;2023-11-22T01:31:31;101559.00;;;6.80
20289;BMP180;10303;51.960;8.372;2023-11-22T01:33:59;101580.00;;;6.80
20289;BMP180;10303;51.960;8.372;2023-11-22T01:36:26;101574.00;;;6.80
20289;BMP180;10303;51.960;8.372;2023-11-22T01:38:53;101585.00;;;6.80
20289;BMP180;10303;51.960;8.372;2023-11-22T01:41:19;101574.00;;;6.70
20289;BMP180;10303;51.960;8.372;2023-11-22T01:43:45;101573.00;;;6.60
20289;BMP180;10303;51.960;8.372;2023-11-22T01:46:24;101572.00;;;6.60
20289;BMP180;10303;51.960;8.372;2023-11-22T01:48:52;101575.00;;;6.60
20289;BMP180;10303;51.960;8.372;2023-11-22T01:51:23;101553.00;;;6.50
20289;BMP180;10303;51.960;8.372;2023-11-22T01:53:55;101585.00;;;6.50
20289;BMP180;10303;51.960;8.372;2023-11-22T01:56:26;101590.00;;;6.40
20289;BMP180;10303;51.960;8.372;2023-11-22T01:58:55;101590.00;;;6.40
20289;BMP180;10303;51.960;8.372;2023-11-22T02:01:22;101595.00;;;6.40
20289;BMP180;10303;51.960;8.372;2023-11-22T02:03:48;101588.00;;;6.40
20289;BMP180;10303;51.960;8.372;2023-11-22T02:06:16;101590.00;;;6.30
20289;BMP180;10303;51.960;8.372;2023-11-22T02:08:42;101593.00;;;6.30
20289;BMP180;10303;51.960;8.372;2023-11-22T02:11:08;101600.00;;;6.20
20289;BMP180;10303;51.960;8.372;2023-11-22T02:13:34;101607.00;;;6.20
20289;BMP180;10303;51.960;8.372;2023-11-22T02:16:03;101605.00;;;6.10
20289;BMP180;10303;51.960;8.372;2023-11-22T02:18:29;101600.00;;;6.10
20289;BMP180;10303;51.960;8.372;2023-11-22T02:20:56;101614.00;;;6.10
20289;BMP180;10303;51.960;8.372;2023-11-22T02:23:22;101617.00;;;6.10
20289;BMP180;10303;51.960;8.372;2023-11-22T02:25:49;101620.00;;;6.00
20289;BMP180;10303;51.960;8.372;2023-11-22T02:28:15;101628.00;;;6.00
20289;BMP180;10303;51.960;8.372;2023-11-22T02:30:42;101630.00;;;6.00
20289;BMP180;10303;51.960;8.372;2023-11-22T02:33:08;101631.00;;;5.90
20289;BMP180;10303;51.960;8.372;2023-11-22T02:35:34;101628.00;;;5.90
20289;BMP180;10303;51.960;8.372;2023-11-22T02:38:01;101632.00;;;5.80
20289;BMP180;10303;51.960;8.372;2023-11-22T02:40:27;101645.00;;;5.80
20289;BMP180;10303;51.960;8.372;2023-11-22T02:42:54;101639.00;;;5.80
20289;BMP180;10303;51.960;8.372;2023-11-22T02:45:28;101644.00;;;5.70
20289;BMP180;10303;51.960;8.372;2023-11-22T02:47:54;101649.00;;;5.70
20289;BMP180;10303;51.960;8.372;2023-11-22T02:50:20;101641.00;;;5.70
20289;BMP180;10303;51.960;8.372;2023-11-22T02:52:47;101637.00;;;5.70
20289;BMP180;10303;51.960;8.372;2023-11-22T02:55:13;101631.00;;;5.60
20289;BMP180;10303;51.960;8.372;2023-11-22T02:57:40;101636.00;;;5.60
20289;BMP180;10303;51.960;8.372;2023-11-22T03:00:08;101646.00;;;5.60
20289;BMP180;10303;51.960;8.372;2023-11-22T03:02:34;101645.00;;;5.60
20289;BMP180;10303;51.960;8.372;2023-11-22T03:05:01;101648.00;;;5.60
20289;BMP180;10303;51.960;8.372;2023-11-22T03:07:27;101656.00;;;5.60
20289;BMP180;10303;51.960;8.372;2023-11-22T03:09:53;101653.00;;;5.50
20289;BMP180;10303;51.960;8.372;2023-11-22T03:12:31;101660.00;;;5.50
20289;BMP180;10303;51.960;8.372;2023-11-22T03:14:58;101663.00;;;5.50
20289;BMP180;10303;51.960;8.372;2023-11-22T03:17:27;101659.00;;;5.50
20289;BMP180;10303;51.960;8.372;2023-11-22T03:19:55;101668.00;;;5.40
20289;BMP180;10303;51.960;8.372;2023-11-22T03:22:27;101664.00;;;5.40
20289;BMP180;10303;51.960;8.372;2023-11-22T03:24:56;101675.00;;;5.40
20289;BMP180;10303;51.960;8.372;2023-11-22T03:27:22;101663.00;;;5.40
20289;BMP180;10303;51.960;8.372;2023-11-22T03:29:49;101663.00;;;5.40
20289;BMP180;10303;51.960;8.372;2023-11-22T03:32:15;101667.00;;;5.40
20289;BMP180;10303;51.960;8.372;2023-11-22T03:34:41;101661.00;;;5.30
20289;BMP180;10303;51.960;8.372;2023-11-22T03:37:07;101659.00;;;5.30
20289;BMP180;10303;51.960;8.372;2023-11-22T03:39:33;101660.00;;;5.30
20289;BMP180;10303;51.960;8.372;2023-11-22T03:41:59;101654.00;;;5.30
20289;BMP180;10303;51.960;8.372;2023-11-22T03:44:25;101653.00;;;5.30
20289;BMP180;10303;51.960;8.372;2023-11-22T03:46:53;101666.00;;;5.20
20289;BMP180;10303;51.960;8.372;2023-11-22T03:49:19;101672.00;;;5.20
20289;BMP180;10303;51.960;8.372;2023-11-22T03:51:47;101684.00;;;5.20
20289;BMP180;10303;51.960;8.372;2023-11-22T03:54:13;101687.00;;;5.20
20289;BMP180;10303;51.960;8.372;2023-11-22T03:56:39;101691.00;;;5.20
20289;BMP180;10303;51.960;8.372;2023-11-22T03:59:05;101702.00;;;5.10
20289;BMP180;10303;51.960;8.372;2023-11-22T04:01:31;101705.00;;;5.10
20289;BMP180;10303;51.960;8.372;2023-11-22T04:03:57;101704.00;;;5.10
20289;BMP180;10303;51.960;8.372;2023-11-22T04:06:23;101710.00;;;5.10
20289;BMP180;10303;51.960;8.372;2023-11-22T04:08:49;101720.00;;;5.10
20289;BMP180;10303;51.960;8.372;2023-11-22T04:11:16;101718.00;;;5.00
20289;BMP180;10303;51.960;8.372;2023-11-22T04:13:43;101714.00;;;5.00
20289;BMP180;10303;51.960;8.372;2023-11-22T04:16:10;101724.00;;;5.00
20289;BMP180;10303;51.960;8.372;2023-11-22T04:18:39;101716.00;;;5.00
20289;BMP180;10303;51.960;8.372;2023-11-22T04:21:07;101721.00;;;5.00
20289;BMP180;10303;51.960;8.372;2023-11-22T04:23:34;101725.00;;;5.00
20289;BMP180;10303;51.960;8.372;2023-11-22T04:26:00;101722.00;;;4.90
20289;BMP180;10303;51.960;8.372;2023-11-22T04:28:28;101729.00;;;4.90
20289;BMP180;10303;51.960;8.372;2023-11-22T04:30:56;101726.00;;;4.90
20289;BMP180;10303;51.960;8.372;2023-11-22T04:33:23;101726.00;;;4.90
20289;BMP180;10303;51.960;8.372;2023-11-22T04:35:50;101725.00;;;4.90
20289;BMP180;10303;51.960;8.372;2023-11-22T04:38:17;101740.00;;;4.90
20289;BMP180;10303;51.960;8.372;2023-11-22T04:40:44;101726.00;;;4.90
20289;BMP180;10303;51.960;8.372;2023-11-22T04:43:10;101722.00;;;4.80
20289;BMP180;10303;51.960;8.372;2023-11-22T04:45:36;101733.00;;;4.80
20289;BMP180;10303;51.960;8.372;2023-11-22T04:48:03;101723.00;;;4.80
20289;BMP180;10303;51.960;8.372;2023-11-22T04:50:29;101728.00;;;4.80
20289;BMP180;10303;51.960;8.372;2023-11-22T04:52:57;101730.00;;;4.80
20289;BMP180;10303;51.960;8.372;2023-11-22T04:55:23;101737.00;;;4.80
20289;BMP180;10303;51.960;8.372;2023-11-22T04:57:49;101734.00;;;4.70
20289;BMP180;10303;51.960;8.372;2023-11-22T05:00:16;101719.00;;;4.80
20289;BMP180;10303;51.960;8.372;2023-11-22T05:02:43;101733.00;;;4.70
20289;BMP180;10303;51.960;8.372;2023-11-22T05:05:09;101722.00;;;4.70
20289;BMP180;10303;51.960;8.372;2023-11-22T05:07:38;101724.00;;;4.70
20289;BMP180;10303;51.960;8.372;2023-11-22T05:10:05;101724.00;;;4.70
20289;BMP180;10303;51.960;8.372;2023-11-22T05:12:32;101723.00;;;4.70
20289;BMP180;10303;51.960;8.372;2023-11-22T05:14:58;101731.00;;;4.70
20289;BMP180;10303;51.960;8.372;2023-11-22T05:17:24;101734.00;;;4.70
20289;BMP180;10303;51.960;8.372;2023-11-22T05:19:50;101752.00;;;4.70
20289;BMP180;10303;51.960;8.372;2023-11-22T05:22:17;101741.00;;;4.60
20289;BMP180;10303;51.960;8.372;2023-11-22T05:24:43;101751.00;;;4.60
20289;BMP180;10303;51.960;8.372;2023-11-22T05:27:09;101748.00;;;4.60
20289;BMP180;10303;51.960;8.372;2023-11-22T05:29:36;101747.00;;;4.60
20289;BMP180;10303;51.960;8.372;2023-11-22T05:32:03;101763.00;;;4.60
20289;BMP180;10303;51.960;8.372;2023-11-22T05:34:29;101779.00;;;4.60
20289;BMP180;10303;51.960;8.372;2023-11-22T05:36:55;101790.00;;;4.60
20289;BMP180;10303;51.960;8.372;2023-11-22T05:39:21;101777.00;;;4.60
20289;BMP180;10303;51.960;8.372;2023-11-22T05:41:51;101777.00;;;4.60
20289;BMP180;10303;51.960;8.372;2023-11-22T05:44:17;101786.00;;;4.60
20289;BMP180;10303;51.960;8.372;2023-11-22T05:46:43;101782.00;;;4.60
20289;BMP180;10303;51.960;8.372;2023-11-22T05:49:09;101771.00;;;4.60
20289;BMP180;10303;51.960;8.372;2023-11-22T05:51:36;101764.00;;;4.60
20289;BMP180;10303;51.960;8.372;2023-11-22T05:54:06;101761.00;;;4.60
20289;BMP180;10303;51.960;8.372;2023-11-22T05:56:32;101767.00;;;4.60
20289;BMP180;10303;51.960;8.372;2023-11-22T05:58:58;101768.00;;;4.60
20289;BMP180;10303;51.960;8.372;2023-11-22T06:01:27;101761.00;;;4.60
20289;BMP180;10303;51.960;8.372;2023-11-22T06:03:53;101762.00;;;4.60
20289;BMP180;10303;51.960;8.372;2023-11-22T06:06:19;101761.00;;;4.60
20289;BMP180;10303;51.960;8.372;2023-11-22T06:08:48;101756.00;;;4.60
20289;BMP180;10303;51.960;8.372;2023-11-22T06:11:14;101765.00;;;4.60
20289;BMP180;10303;51.960;8.372;2023-11-22T06:13:42;101765.00;;;4.60
20289;BMP180;10303;51.960;8.372;2023-11-22T06:16:11;101774.00;;;4.50
20289;BMP180;10303;51.960;8.372;2023-11-22T06:18:37;101784.00;;;4.50
20289;BMP180;10303;51.960;8.372;2023-11-22T06:21:09;101783.00;;;4.50
20289;BMP180;10303;51.960;8.372;2023-11-22T06:23:35;101775.00;;;4.50
20289;BMP180;10303;51.960;8.372;2023-11-22T06:26:01;101782.00;;;4.50
20289;BMP180;10303;51.960;8.372;2023-11-22T06:28:27;101794.00;;;4.50
20289;BMP180;10303;51.960;8.372;2023-11-22T06:30:54;101779.00;;;4.50
20289;BMP180;10303;51.960;8.372;2023-11-22T06:33:20;101781.00;;;4.50
20289;BMP180;10303;51.960;8.372;2023-11-22T06:35:46;101785.00;;;4.50
20289;BMP180;10303;51.960;8.372;2023-11-22T06:38:13;101782.00;;;4.50
20289;BMP180;10303;51.960;8.372;2023-11-22T06:40:38;101779.00;;;4.50
20289;BMP180;10303;51.960;8.372;2023-11-22T06:43:04;101769.00;;;4.50
20289;BMP180;10303;51.960;8.372;2023-11-22T06:45:31;101783.00;;;4.50
20289;BMP180;10303;51.960;8.372;2023-11-22T06:47:57;101774.00;;;4.50
20289;BMP180;10303;51.960;8.372;2023-11-22T06:50:24;101768.00;;;4.50
20289;BMP180;10303;51.960;8.372;2023-11-22T06:52:50;101764.00;;;4.50
20289;BMP180;10303;51.960;8.372;2023-11-22T06:55:18;101773.00;;;4.50
20289;BMP180;10303;51.960;8.372;2023-11-22T06:57:45;101771.00;;;4.50
20289;BMP180;10303;51.960;8.372;2023-11-22T07:00:11;101768.00;;;4.50
20289;BMP180;10303;51.960;8.372;2023-11-22T07:02:42;101754.00;;;4.40
20289;BMP180;10303;51.960;8.372;2023-11-22T07:05:08;101757.00;;;4.40
20289;BMP180;10303;51.960;8.372;2023-11-22T07:07:35;101766.00;;;4.40
20289;BMP180;10303;51.960;8.372;2023-11-22T07:10:02;101768.00;;;4.40
20289;BMP180;10303;51.960;8.372;2023-11-22T07:12:32;101771.00;;;4.40
20289;BMP180;10303;51.960;8.372;2023-11-22T07:15:00;101767.00;;;4.40
20289;BMP180;10303;51.960;8.372;2023-11-22T07:17:26;101780.00;;;4.40
20289;BMP180;10303;51.960;8.372;2023-11-22T07:19:54;101784.00;;;4.40
20289;BMP180;10303;51.960;8.372;2023-11-22T07:22:20;101793.00;;;4.40
20289;BMP180;10303;51.960;8.372;2023-11-22T07:24:49;101793.00;;;4.40
20289;BMP180;10303;51.960;8.372;2023-11-22T07:27:20;101803.00;;;4.40
20289;BMP180;10303;51.960;8.372;2023-11-22T07:29:46;101807.00;;;4.40
20289;BMP180;10303;51.960;8.372;2023-11-22T07:32:13;101803.00;;;4.40
20289;BMP180;10303;51.960;8.372;2023-11-22T07:34:40;101795.00;;;4.40
20289;BMP180;10303;51.960;8.372;2023-11-22T07:37:07;101803.00;;;4.40
20289;BMP180;10303;51.960;8.372;2023-11-22T07:39:35;101798.00;;;4.40
20289;BMP180;10303;51.960;8.372;2023-11-22T07:42:05;101808.00;;;4.40
20289;BMP180;10303;51.960;8.372;2023-11-22T07:44:35;101807.00;;;4.50
20289;BMP180;10303;51.960;8.372;2023-11-22T07:47:04;101801.00;;;4.50
20289;BMP180;10303;51.960;8.372;2023-11-22T07:49:35;101804.00;;;4.50
20289;BMP180;10303;51.960;8.372;2023-11-22T07:52:04;101809.00;;;4.60
20289;BMP180;10303;51.960;8.372;2023-11-22T07:54:31;101815.00;;;4.60
20289;BMP180;10303;51.960;8.372;2023-11-22T07:56:58;101819.00;;;4.60
20289;BMP180;10303;51.960;8.372;2023-11-22T07:59:24;101825.00;;;4.70
20289;BMP180;10303;51.960;8.372;2023-11-22T08:01:50;101830.00;;;4.70
20289;BMP180;10303;51.960;8.372;2023-11-22T08:04:16;101826.00;;;4.70
20289;BMP180;10303;51.960;8.372;2023-11-22T08:06:42;101822.00;;;4.70
20289;BMP180;10303;51.960;8.372;2023-11-22T08:09:09;101819.00;;;4.80
20289;BMP180;10303;51.960;8.372;2023-11-22T08:11:36;101818.00;;;4.80
20289;BMP180;10303;51.960;8.372;2023-11-22T08:14:05;101819.00;;;4.90
20289;BMP180;10303;51.960;8.372;2023-11-22T08:16:32;101815.00;;;4.90
20289;BMP180;10303;51.960;8.372;2023-11-22T08:19:06;101817.00;;;4.90
20289;BMP180;10303;51.960;8.372;2023-11-22T08:21:33;101811.00;;;5.00
20289;BMP180;10303;51.960;8.372;2023-11-22T08:23:59;101820.00;;;5.00
20289;BMP180;10303;51.960;8.372;2023-11-22T08:26:25;101825.00;;;5.10
20289;BMP180;10303;51.960;8.372;2023-11-22T08:28:52;101826.00;;;5.10
20289;BMP180;10303;51.960;8.372;2023-11-22T08:31:17;101829.00;;;5.20
20289;BMP180;10303;51.960;8.372;2023-11-22T08:33:43;101839.00;;;5.20
20289;BMP180;10303;51.960;8.372;2023-11-22T08:36:09;101850.00;;;5.30
20289;BMP180;10303;51.960;8.372;2023-11-22T08:38:36;101849.00;;;5.40
20289;BMP180;10303;51.960;8.372;2023-11-22T08:41:05;101850.00;;;5.50
20289;BMP180;10303;51.960;8.372;2023-11-22T08:43:32;101849.00;;;5.60
20289;BMP180;10303;51.960;8.372;2023-11-22T08:46:00;101849.00;;;5.70
20289;BMP180;10303;51.960;8.372;2023-11-22T08:48:26;101858.00;;;5.90
20289;BMP180;10303;51.960;8.372;2023-11-22T08:50:53;101863.00;;;6.10
20289;BMP180;10303;51.960;8.372;2023-11-22T08:53:21;101879.00;;;6.30
20289;BMP180;10303;51.960;8.372;2023-11-22T08:55:50;101899.00;;;6.50
20289;BMP180;10303;51.960;8.372;2023-11-22T08:58:17;101889.00;;;6.60
20289;BMP180;10303;51.960;8.372;2023-11-22T09:00:43;101904.00;;;6.80
20289;BMP180;10303;51.960;8.372;2023-11-22T09:03:11;101916.00;;;6.90
20289;BMP180;10303;51.960;8.372;2023-11-22T09:05:45;101915.00;;;7.10
20289;BMP180;10303;51.960;8.372;2023-11-22T09:08:12;101899.00;;;7.20
20289;BMP180;10303;51.960;8.372;2023-11-22T09:10:42;101889.00;;;7.30
20289;BMP180;10303;51.960;8.372;2023-11-22T09:13:08;101890.00;;;7.40
20289;BMP180;10303;51.960;8.372;2023-11-22T09:15:35;101875.00;;;7.50
20289;BMP180;10303;51.960;8.372;2023-11-22T09:18:02;101879.00;;;7.60
20289;BMP180;10303;51.960;8.372;2023-11-22T09:20:28;101865.00;;;7.70
20289;BMP180;10303;51.960;8.372;2023-11-22T09:22:54;101862.00;;;7.80
20289;BMP180;10303;51.960;8.372;2023-11-22T09:25:22;101864.00;;;7.90
20289;BMP180;10303;51.960;8.372;2023-11-22T09:27:54;101875.00;;;8.00
20289;BMP180;10303;51.960;8.372;2023-11-22T09:30:30;101881.00;;;8.00
20289;BMP180;10303;51.960;8.372;2023-11-22T09:33:12;101889.00;;;8.00
20289;BMP180;10303;51.960;8.372;2023-11-22T09:35:42;101888.00;;;8.10
20289;BMP180;10303;51.960;8.372;2023-11-22T09:38:09;101881.00;;;8.10
20289;BMP180;10303;51.960;8.372;2023-11-22T09:40:56;101887.00;;;8.10
20289;BMP180;10303;51.960;8.372;2023-11-22T09:43:22;101874.00;;;8.20
20289;BMP180;10303;51.960;8.372;2023-11-22T09:45:51;101869.00;;;8.20
20289;BMP180;10303;51.960;8.372;2023-11-22T09:48:22;101853.00;;;8.20
20289;BMP180;10303;51.960;8.372;2023-11-22T09:53:59;101870.00;;;8.20
20289;BMP180;10303;51.960;8.372;2023-11-22T09:56:31;101884.00;;;8.20
20289;BMP180;10303;51.960;8.372;2023-11-22T09:59:00;101887.00;;;8.30
20289;BMP180;10303;51.960;8.372;2023-11-22T10:01:29;101886.00;;;8.30
20289;BMP180;10303;51.960;8.372;2023-11-22T10:03:58;101900.00;;;8.30
20289;BMP180;10303;51.960;8.372;2023-11-22T10:06:25;101858.00;;;8.30
20289;BMP180;10303;51.960;8.372;2023-11-22T10:08:52;101875.00;;;8.30
20289;BMP180;10303;51.960;8.372;2023-11-22T10:11:19;101873.00;;;8.30
20289;BMP180;10303;51.960;8.372;2023-11-22T10:13:49;101872.00;;;8.40
20289;BMP180;10303;51.960;8.372;2023-11-22T10:16:18;101876.00;;;8.40
20289;BMP180;10303;51.960;8.372;2023-11-22T10:18:47;101863.00;;;8.40
20289;BMP180;10303;51.960;8.372;2023-11-22T10:21:23;101861.00;;;8.50
20289;BMP180;10303;51.960;8.372;2023-11-22T10:24:00;101853.00;;;8.50
20289;BMP180;10303;51.960;8.372;2023-11-22T10:26:28;101854.00;;;8.60
20289;BMP180;10303;51.960;8.372;2023-11-22T10:28:57;101856.00;;;8.60
20289;BMP180;10303;51.960;8.372;2023-11-22T10:31:24;101873.00;;;8.70
20289;BMP180;10303;51.960;8.372;2023-11-22T10:33:52;101887.00;;;8.80
20289;BMP180;10303;51.960;8.372;2023-11-22T10:36:19;101889.00;;;8.80
20289;BMP180;10303;51.960;8.372;2023-11-22T10:38:47;101871.00;;;8.90
20289;BMP180;10303;51.960;8.372;2023-11-22T10:41:14;101875.00;;;9.00
20289;BMP180;10303;51.960;8.372;2023-11-22T10:43:41;101871.00;;;9.00
20289;BMP180;10303;51.960;8.372;2023-11-22T10:46:08;101865.00;;;9.10
20289;BMP180;10303;51.960;8.372;2023-11-22T10:48:38;101871.00;;;9.20
20289;BMP180;10303;51.960;8.372;2023-11-22T10:51:06;101873.00;;;9.30
20289;BMP180;10303;51.960;8.372;2023-11-22T10:53:32;101878.00;;;9.30
20289;BMP180;10303;51.960;8.372;2023-11-22T10:56:16;101865.00;;;9.30
20289;BMP180;10303;51.960;8.372;2023-11-22T10:58:51;101858.00;;;9.40
20289;BMP180;10303;51.960;8.372;2023-11-22T11:01:24;101857.00;;;9.40
20289;BMP180;10303;51.960;8.372;2023-11-22T11:04:02;101852.00;;;9.40
20289;BMP180;10303;51.960;8.372;2023-11-22T11:06:35;101854.00;;;9.40
20289;BMP180;10303;51.960;8.372;2023-11-22T11:09:06;101855.00;;;9.40
20289;BMP180;10303;51.960;8.372;2023-11-22T11:11:37;101852.00;;;9.40
20289;BMP180;10303;51.960;8.372;2023-11-22T11:14:07;101855.00;;;9.40
20289;BMP180;10303;51.960;8.372;2023-11-22T11:16:39;101845.00;;;9.50
20289;BMP180;10303;51.960;8.372;2023-11-22T11:19:15;101842.00;;;9.50
20289;BMP180;10303;51.960;8.372;2023-11-22T11:21:43;101828.00;;;9.50
20289;BMP180;10303;51.960;8.372;2023-11-22T11:24:10;101836.00;;;9.50
20289;BMP180;10303;51.960;8.372;2023-11-22T11:26:37;101850.00;;;9.60
20289;BMP180;10303;51.960;8.372;2023-11-22T11:29:03;101833.00;;;9.70
20289;BMP180;10303;51.960;8.372;2023-11-22T11:31:38;101834.00;;;9.90
20289;BMP180;10303;51.960;8.372;2023-11-22T11:34:06;101851.00;;;10.00
20289;BMP180;10303;51.960;8.372;2023-11-22T11:36:33;101837.00;;;10.20
20289;BMP180;10303;51.960;8.372;2023-11-22T11:39:07;101841.00;;;10.30
20289;BMP180;10303;51.960;8.372;2023-11-22T11:41:41;101831.00;;;10.50
20289;BMP180;10303;51.960;8.372;2023-11-22T11:44:08;101828.00;;;10.70
20289;BMP180;10303;51.960;8.372;2023-11-22T11:46:38;101813.00;;;10.80
20289;BMP180;10303;51.960;8.372;2023-11-22T11:49:12;101820.00;;;10.90
20289;BMP180;10303;51.960;8.372;2023-11-22T11:51:41;101812.00;;;11.00
20289;BMP180;10303;51.960;8.372;2023-11-22T11:54:08;101802.00;;;11.20
20289;BMP180;10303;51.960;8.372;2023-11-22T11:56:37;101787.00;;;11.40
20289;BMP180;10303;51.960;8.372;2023-11-22T11:59:04;101787.00;;;11.60
20289;BMP180;10303;51.960;8.372;2023-11-22T12:01:31;101774.00;;;11.90
20289;BMP180;10303;51.960;8.372;2023-11-22T12:04:01;101780.00;;;12.10
20289;BMP180;10303;51.960;8.372;2023-11-22T12:06:29;101750.00;;;12.40
20289;BMP180;10303;51.960;8.372;2023-11-22T12:09:00;101734.00;;;12.70
20289;BMP180;10303;51.960;8.372;2023-11-22T12:11:26;101712.00;;;12.90
20289;BMP180;10303;51.960;8.372;2023-11-22T12:13:54;101723.00;;;13.10
20289;BMP180;10303;51.960;8.372;2023-11-22T12:16:22;101711.00;;;13.10
20289;BMP180;10303;51.960;8.372;2023-11-22T12:18:49;101712.00;;;13.10
20289;BMP180;10303;51.960;8.372;2023-11-22T12:21:18;101710.00;;;13.00
20289;BMP180;10303;51.960;8.372;2023-11-22T12:23:46;101716.00;;;12.90
20289;BMP180;10303;51.960;8.372;2023-11-22T12:26:17;101697.00;;;12.80
20289;BMP180;10303;51.960;8.372;2023-11-22T12:28:47;101690.00;;;12.80
20289;BMP180;10303;51.960;8.372;2023-11-22T12:31:15;101685.00;;;12.90
20289;BMP180;10303;51.960;8.372;2023-11-22T12:33:42;101682.00;;;13.00
20289;BMP180;10303;51.960;8.372;2023-11-22T12:36:10;101695.00;;;13.20
20289;BMP180;10303;51.960;8.372;2023-11-22T12:38:37;101682.00;;;13.40
20289;BMP180;10303;51.960;8.372;2023-11-22T12:41:05;101673.00;;;13.40
20289;BMP180;10303;51.960;8.372;2023-11-22T12:43:35;101678.00;;;13.50
20289;BMP180;10303;51.960;8.372;2023-11-22T12:46:06;101678.00;;;13.50
20289;BMP180;10303;51.960;8.372;2023-11-22T12:48:33;101651.00;;;13.60
20289;BMP180;10303;51.960;8.372;2023-11-22T12:51:00;101650.00;;;13.60
20289;BMP180;10303;51.960;8.372;2023-11-22T12:53:26;101651.00;;;13.60
20289;BMP180;10303;51.960;8.372;2023-11-22T12:55:55;101664.00;;;13.50
20289;BMP180;10303;51.960;8.372;2023-11-22T12:58:25;101661.00;;;13.40
20289;BMP180;10303;51.960;8.372;2023-11-22T13:00:53;101668.00;;;13.40
20289;BMP180;10303;51.960;8.372;2023-11-22T13:03:24;101678.00;;;13.10
20289;BMP180;10303;51.960;8.372;2023-11-22T13:05:54;101682.00;;;12.90
20289;BMP180;10303;51.960;8.372;2023-11-22T13:08:20;101688.00;;;12.50
20289;BMP180;10303;51.960;8.372;2023-11-22T13:10:49;101688.00;;;12.30
20289;BMP180;10303;51.960;8.372;2023-11-22T13:13:25;101687.00;;;12.20
20289;BMP180;10303;51.960;8.372;2023-11-22T13:15:53;101683.00;;;12.10
20289;BMP180;10303;51.960;8.372;2023-11-22T13:18:20;101684.00;;;12.00
20289;BMP180;10303;51.960;8.372;2023-11-22T13:20:47;101680.00;;;11.90
20289;BMP180;10303;51.960;8.372;2023-11-22T13:23:14;101680.00;;;11.70
20289;BMP180;10303;51.960;8.372;2023-11-22T13:25:40;101687.00;;;11.70
20289;BMP180;10303;51.960;8.372;2023-11-22T13:28:10;101694.00;;;11.50
20289;BMP180;10303;51.960;8.372;2023-11-22T13:30:36;101701.00;;;11.40
20289;BMP180;10303;51.960;8.372;2023-11-22T13:33:02;101703.00;;;11.20
20289;BMP180;10303;51.960;8.372;2023-11-22T13:35:29;101695.00;;;11.10
20289;BMP180;10303;51.960;8.372;2023-11-22T13:37:58;101688.00;;;10.90
20289;BMP180;10303;51.960;8.372;2023-11-22T13:40:25;101682.00;;;10.80
20289;BMP180;10303;51.960;8.372;2023-11-22T13:42:56;101700.00;;;10.60
20289;BMP180;10303;51.960;8.372;2023-11-22T13:45:22;101686.00;;;10.50
20289;BMP180;10303;51.960;8.372;2023-11-22T13:47:51;101706.00;;;10.40
20289;BMP180;10303;51.960;8.372;2023-11-22T13:50:20;101691.00;;;10.40
20289;BMP180;10303;51.960;8.372;2023-11-22T13:52:54;101676.00;;;10.20
20289;BMP180;10303;51.960;8.372;2023-11-22T13:55:20;101685.00;;;10.20
20289;BMP180;10303;51.960;8.372;2023-11-22T13:57:55;101687.00;;;10.10
20289;BMP180;10303;51.960;8.372;2023-11-22T14:00:24;101690.00;;;10.00
20289;BMP180;10303;51.960;8.372;2023-11-22T14:02:57;101703.00;;;9.90
20289;BMP180;10303;51.960;8.372;2023-11-22T14:05:24;101710.00;;;9.80
20289;BMP180;10303;51.960;8.372;2023-11-22T14:07:50;101704.00;;;9.60
20289;BMP180;10303;51.960;8.372;2023-11-22T14:10:17;101714.00;;;9.50
20289;BMP180;10303;51.960;8.372;2023-11-22T14:12:44;101717.00;;;9.40